AIB3ED EDDH-EDDF
Flight info
| Callsign | AIB3ED |
|---|---|
| Flight time | 0h 50m |
| Altitude | 26000 |
| Route | IDEKO8C/05 IDEKO KERAX ILS25R EDDF |
| Aircraft | A20N/M-VGDW/C |
Departure
| Time | 2026-05-06 14:28 |
|---|---|
| Airport | Hamburg Helmut Schmidt Airport (EDDH) |
Arrival
| Time | 2026-05-06 15:18 |
|---|---|
| Airport | Frankfurt Main Airport (EDDF) |
| Time | Latitude | Longitude | Altitude | Speed | Heading |
|---|---|---|---|---|---|
| 2026-05-06 14:03 | 53.62797 | 9.99355 | 48 ft | 0 kts | 242° |
| 2026-05-06 14:07 | 53.62797 | 9.99357 | 48 ft | 2 kts | 242° |
| 2026-05-06 14:07 | 53.62805 | 9.99381 | 48 ft | 2 kts | 242° |
| 2026-05-06 14:07 | 53.62812 | 9.99405 | 46 ft | 2 kts | 242° |
| 2026-05-06 14:07 | 53.62821 | 9.99427 | 45 ft | 2 kts | 212° |
| 2026-05-06 14:08 | 53.62836 | 9.99437 | 47 ft | 2 kts | 167° |
| 2026-05-06 14:08 | 53.62838 | 9.99437 | 48 ft | 0 kts | 156° |
| 2026-05-06 14:09 | 53.62838 | 9.99438 | 48 ft | 1 kts | 154° |
| 2026-05-06 14:10 | 53.62813 | 9.99469 | 46 ft | 8 kts | 142° |
| 2026-05-06 14:10 | 53.62741 | 9.99545 | 49 ft | 15 kts | 151° |
| 2026-05-06 14:10 | 53.62700 | 9.99582 | 48 ft | 0 kts | 152° |
| 2026-05-06 14:11 | 53.62679 | 9.99601 | 49 ft | 8 kts | 152° |
| 2026-05-06 14:12 | 53.62659 | 9.99623 | 48 ft | 0 kts | 137° |
| 2026-05-06 14:12 | 53.62647 | 9.99627 | 49 ft | 2 kts | 185° |
| 2026-05-06 14:13 | 53.62624 | 9.99582 | 49 ft | 11 kts | 237° |
| 2026-05-06 14:13 | 53.62600 | 9.99430 | 49 ft | 16 kts | 258° |
| 2026-05-06 14:13 | 53.62594 | 9.99381 | 48 ft | 0 kts | 258° |
| 2026-05-06 14:13 | 53.62574 | 9.99195 | 48 ft | 22 kts | 261° |
| 2026-05-06 14:14 | 53.62546 | 9.98935 | 47 ft | 23 kts | 259° |
| 2026-05-06 14:14 | 53.62515 | 9.98666 | 46 ft | 14 kts | 259° |
| 2026-05-06 14:14 | 53.62500 | 9.98538 | 46 ft | 12 kts | 259° |
| 2026-05-06 14:14 | 53.62482 | 9.98385 | 45 ft | 16 kts | 258° |
| 2026-05-06 14:15 | 53.62451 | 9.98184 | 45 ft | 19 kts | 245° |
| 2026-05-06 14:15 | 53.62372 | 9.97976 | 44 ft | 23 kts | 231° |
| 2026-05-06 14:15 | 53.62263 | 9.97751 | 44 ft | 24 kts | 231° |
| 2026-05-06 14:15 | 53.62186 | 9.97573 | 41 ft | 16 kts | 250° |
| 2026-05-06 14:16 | 53.62184 | 9.97558 | 42 ft | 0 kts | 260° |
| 2026-05-06 14:18 | 53.62182 | 9.97530 | 43 ft | 6 kts | 266° |
| 2026-05-06 14:18 | 53.62197 | 9.97433 | 43 ft | 3 kts | 305° |
| 2026-05-06 14:25 | 53.62210 | 9.97408 | 42 ft | 6 kts | 314° |
| 2026-05-06 14:26 | 53.62264 | 9.97362 | 45 ft | 11 kts | 349° |
| 2026-05-06 14:26 | 53.62334 | 9.97399 | 44 ft | 11 kts | 46° |
| 2026-05-06 14:26 | 53.62341 | 9.97412 | 44 ft | 0 kts | 47° |
| 2026-05-06 14:27 | 53.62344 | 9.97418 | 44 ft | 10 kts | 47° |
| 2026-05-06 14:27 | 53.62619 | 9.97963 | 46 ft | 113 kts | 50° |
| 2026-05-06 14:28 | 53.63285 | 9.99314 | 169 ft | 183 kts | 49° |
| 2026-05-06 14:28 | 53.64195 | 10.01067 | 850 ft | 208 kts | 50° |
| 2026-05-06 14:28 | 53.65114 | 10.02936 | 2158 ft | 205 kts | 51° |
| 2026-05-06 14:28 | 53.66004 | 10.04781 | 3584 ft | 203 kts | 52° |
| 2026-05-06 14:29 | 53.66600 | 10.06014 | 4229 ft | 209 kts | 52° |
| 2026-05-06 14:29 | 53.67551 | 10.07954 | 4802 ft | 217 kts | 50° |
| 2026-05-06 14:29 | 53.68741 | 10.09535 | 5215 ft | 224 kts | 26° |
| 2026-05-06 14:29 | 53.70302 | 10.09967 | 6216 ft | 236 kts | 356° |
| 2026-05-06 14:30 | 53.71823 | 10.08880 | 7374 ft | 245 kts | 322° |
| 2026-05-06 14:30 | 53.72863 | 10.06571 | 8589 ft | 250 kts | 302° |
| 2026-05-06 14:30 | 53.73671 | 10.03947 | 9448 ft | 252 kts | 297° |
| 2026-05-06 14:30 | 53.74409 | 10.01233 | 9819 ft | 254 kts | 292° |
| 2026-05-06 14:31 | 53.74830 | 9.98355 | 9882 ft | 258 kts | 276° |
| 2026-05-06 14:31 | 53.74699 | 9.95341 | 9890 ft | 259 kts | 256° |
| 2026-05-06 14:31 | 53.74089 | 9.92464 | 10317 ft | 263 kts | 247° |
| 2026-05-06 14:31 | 53.73359 | 9.89607 | 11402 ft | 264 kts | 245° |
| 2026-05-06 14:32 | 53.72626 | 9.86773 | 12654 ft | 263 kts | 243° |
| 2026-05-06 14:32 | 53.71885 | 9.83899 | 13653 ft | 274 kts | 244° |
| 2026-05-06 14:32 | 53.71090 | 9.80814 | 14127 ft | 300 kts | 243° |
| 2026-05-06 14:32 | 53.70230 | 9.77456 | 14614 ft | 325 kts | 244° |
| 2026-05-06 14:33 | 53.69298 | 9.73810 | 15039 ft | 350 kts | 244° |
| 2026-05-06 14:33 | 53.68313 | 9.69945 | 15702 ft | 365 kts | 245° |
| 2026-05-06 14:33 | 53.67303 | 9.65975 | 16635 ft | 371 kts | 245° |
| 2026-05-06 14:33 | 53.66274 | 9.61955 | 17642 ft | 375 kts | 243° |
| 2026-05-06 14:34 | 53.64815 | 9.58345 | 18551 ft | 375 kts | 223° |
| 2026-05-06 14:34 | 53.62647 | 9.55909 | 19368 ft | 379 kts | 202° |
| 2026-05-06 14:34 | 53.60069 | 9.54959 | 20159 ft | 384 kts | 183° |
| 2026-05-06 14:34 | 53.57376 | 9.55006 | 20923 ft | 390 kts | 179° |
| 2026-05-06 14:35 | 53.54641 | 9.55029 | 21730 ft | 394 kts | 182° |
| 2026-05-06 14:35 | 53.51885 | 9.54847 | 22506 ft | 400 kts | 184° |
| 2026-05-06 14:35 | 53.49088 | 9.54502 | 23270 ft | 406 kts | 185° |
| 2026-05-06 14:35 | 53.46248 | 9.54057 | 23862 ft | 411 kts | 186° |
| 2026-05-06 14:36 | 53.43392 | 9.53556 | 24537 ft | 413 kts | 186° |
| 2026-05-06 14:36 | 53.40526 | 9.53025 | 25196 ft | 416 kts | 186° |
| 2026-05-06 14:36 | 53.37644 | 9.52477 | 25682 ft | 419 kts | 186° |
| 2026-05-06 14:36 | 53.34743 | 9.51918 | 25839 ft | 421 kts | 186° |
| 2026-05-06 14:37 | 53.31823 | 9.51352 | 25862 ft | 423 kts | 186° |
| 2026-05-06 14:37 | 53.28938 | 9.50790 | 25860 ft | 423 kts | 186° |
| 2026-05-06 14:37 | 53.26014 | 9.50219 | 25859 ft | 422 kts | 186° |
| 2026-05-06 14:37 | 53.23096 | 9.49650 | 25858 ft | 422 kts | 186° |
| 2026-05-06 14:38 | 53.20171 | 9.49080 | 25859 ft | 423 kts | 186° |
| 2026-05-06 14:38 | 53.17243 | 9.48510 | 25860 ft | 423 kts | 186° |
| 2026-05-06 14:38 | 53.14321 | 9.47942 | 25856 ft | 423 kts | 186° |
| 2026-05-06 14:38 | 53.11393 | 9.47373 | 25854 ft | 422 kts | 186° |
| 2026-05-06 14:39 | 53.08473 | 9.46807 | 25856 ft | 423 kts | 186° |
| 2026-05-06 14:39 | 53.05546 | 9.46240 | 25852 ft | 423 kts | 186° |
| 2026-05-06 14:39 | 53.02567 | 9.45664 | 25857 ft | 440 kts | 186° |
| 2026-05-06 14:39 | 52.99457 | 9.45157 | 25857 ft | 457 kts | 182° |
| 2026-05-06 14:40 | 52.96236 | 9.45026 | 25844 ft | 467 kts | 179° |
| 2026-05-06 14:40 | 52.92979 | 9.45133 | 25846 ft | 468 kts | 178° |
| 2026-05-06 14:40 | 52.89720 | 9.45354 | 25845 ft | 469 kts | 177° |
| 2026-05-06 14:40 | 52.86453 | 9.45609 | 25845 ft | 469 kts | 177° |
| 2026-05-06 14:41 | 52.83191 | 9.45857 | 25844 ft | 470 kts | 177° |
| 2026-05-06 14:41 | 52.79932 | 9.46085 | 25841 ft | 468 kts | 177° |
| 2026-05-06 14:41 | 52.76678 | 9.46291 | 25842 ft | 469 kts | 178° |
| 2026-05-06 14:41 | 52.73408 | 9.46483 | 25837 ft | 470 kts | 178° |
| 2026-05-06 14:42 | 52.70138 | 9.46664 | 25836 ft | 470 kts | 178° |
| 2026-05-06 14:42 | 52.66869 | 9.46841 | 25831 ft | 470 kts | 178° |
| 2026-05-06 14:42 | 52.63599 | 9.47015 | 25829 ft | 468 kts | 178° |
| 2026-05-06 14:42 | 52.60379 | 9.47188 | 25828 ft | 469 kts | 178° |
| 2026-05-06 14:43 | 52.57110 | 9.47363 | 25829 ft | 471 kts | 178° |
| 2026-05-06 14:43 | 52.53834 | 9.47539 | 25830 ft | 472 kts | 178° |
| 2026-05-06 14:43 | 52.50547 | 9.47716 | 25827 ft | 472 kts | 178° |
| 2026-05-06 14:43 | 52.47272 | 9.47892 | 25829 ft | 471 kts | 179° |
| 2026-05-06 14:44 | 52.43996 | 9.48068 | 25828 ft | 471 kts | 178° |
| 2026-05-06 14:44 | 52.40720 | 9.48244 | 25829 ft | 471 kts | 179° |
| 2026-05-06 14:44 | 52.37432 | 9.48421 | 25827 ft | 472 kts | 179° |
| 2026-05-06 14:45 | 52.30852 | 9.48774 | 25827 ft | 473 kts | 179° |
| 2026-05-06 14:45 | 52.27560 | 9.48949 | 25822 ft | 473 kts | 179° |
| 2026-05-06 14:45 | 52.24265 | 9.49125 | 25822 ft | 473 kts | 179° |
| 2026-05-06 14:45 | 52.20972 | 9.49301 | 25820 ft | 473 kts | 179° |
| 2026-05-06 14:46 | 52.17673 | 9.49477 | 25814 ft | 473 kts | 179° |
| 2026-05-06 14:46 | 52.14381 | 9.49652 | 25810 ft | 473 kts | 179° |
| 2026-05-06 14:46 | 52.11092 | 9.49827 | 25806 ft | 474 kts | 179° |
| 2026-05-06 14:46 | 52.07790 | 9.50002 | 25804 ft | 474 kts | 179° |
| 2026-05-06 14:47 | 52.04487 | 9.50176 | 25805 ft | 474 kts | 179° |
| 2026-05-06 14:47 | 52.01184 | 9.50350 | 25805 ft | 474 kts | 180° |
| 2026-05-06 14:47 | 51.97891 | 9.50523 | 25799 ft | 474 kts | 179° |
| 2026-05-06 14:47 | 51.94581 | 9.50698 | 25802 ft | 474 kts | 179° |
| 2026-05-06 14:48 | 51.91281 | 9.50871 | 25802 ft | 474 kts | 179° |
| 2026-05-06 14:48 | 51.87984 | 9.51044 | 25792 ft | 474 kts | 179° |
| 2026-05-06 14:48 | 51.84687 | 9.51217 | 25796 ft | 474 kts | 179° |
| 2026-05-06 14:48 | 51.81381 | 9.51390 | 25796 ft | 474 kts | 179° |
| 2026-05-06 14:49 | 51.78081 | 9.51563 | 25793 ft | 474 kts | 179° |
| 2026-05-06 14:49 | 51.74780 | 9.51736 | 25792 ft | 474 kts | 179° |
| 2026-05-06 14:49 | 51.71485 | 9.51908 | 25789 ft | 474 kts | 179° |
| 2026-05-06 14:49 | 51.68183 | 9.52080 | 25785 ft | 474 kts | 179° |
| 2026-05-06 14:50 | 51.64883 | 9.52251 | 25778 ft | 474 kts | 179° |
| 2026-05-06 14:50 | 51.61595 | 9.52422 | 25780 ft | 471 kts | 179° |
| 2026-05-06 14:50 | 51.58324 | 9.52591 | 25779 ft | 470 kts | 179° |
| 2026-05-06 14:50 | 51.55056 | 9.52760 | 25776 ft | 469 kts | 179° |
| 2026-05-06 14:51 | 51.51788 | 9.52929 | 25775 ft | 469 kts | 179° |
| 2026-05-06 14:51 | 51.48528 | 9.53097 | 25775 ft | 469 kts | 179° |
| 2026-05-06 14:51 | 51.45301 | 9.53263 | 25773 ft | 469 kts | 179° |
| 2026-05-06 14:51 | 51.41992 | 9.53434 | 25765 ft | 469 kts | 179° |
| 2026-05-06 14:52 | 51.38742 | 9.53601 | 25773 ft | 466 kts | 180° |
| 2026-05-06 14:52 | 51.35508 | 9.53768 | 25773 ft | 464 kts | 180° |
| 2026-05-06 14:52 | 51.32279 | 9.53933 | 25775 ft | 463 kts | 180° |
| 2026-05-06 14:52 | 51.29104 | 9.54095 | 25778 ft | 463 kts | 180° |
| 2026-05-06 14:53 | 51.25842 | 9.54262 | 25778 ft | 463 kts | 180° |
| 2026-05-06 14:53 | 51.22634 | 9.54426 | 25604 ft | 455 kts | 180° |
| 2026-05-06 14:53 | 51.19503 | 9.54590 | 24803 ft | 447 kts | 181° |
| 2026-05-06 14:53 | 51.16404 | 9.54750 | 23787 ft | 446 kts | 181° |
| 2026-05-06 14:54 | 51.13304 | 9.54906 | 22685 ft | 445 kts | 181° |
| 2026-05-06 14:54 | 51.10262 | 9.55059 | 21731 ft | 440 kts | 181° |
| 2026-05-06 14:54 | 51.07250 | 9.55213 | 21171 ft | 420 kts | 181° |
| 2026-05-06 14:54 | 51.04409 | 9.55364 | 20554 ft | 398 kts | 181° |
| 2026-05-06 14:55 | 51.01690 | 9.55507 | 19679 ft | 385 kts | 180° |
| 2026-05-06 14:55 | 50.99038 | 9.55641 | 18758 ft | 377 kts | 180° |
| 2026-05-06 14:55 | 50.96428 | 9.55769 | 17733 ft | 372 kts | 180° |
| 2026-05-06 14:55 | 50.93860 | 9.55895 | 16654 ft | 367 kts | 180° |
| 2026-05-06 14:56 | 50.91366 | 9.56019 | 16117 ft | 349 kts | 180° |
| 2026-05-06 14:56 | 50.89012 | 9.56139 | 15760 ft | 329 kts | 180° |
| 2026-05-06 14:56 | 50.86785 | 9.56253 | 15385 ft | 312 kts | 180° |
| 2026-05-06 14:56 | 50.84643 | 9.56361 | 14862 ft | 303 kts | 180° |
| 2026-05-06 14:57 | 50.82553 | 9.56464 | 14219 ft | 298 kts | 180° |
| 2026-05-06 14:57 | 50.80507 | 9.56563 | 13819 ft | 288 kts | 180° |
| 2026-05-06 14:57 | 50.78561 | 9.56662 | 13571 ft | 272 kts | 180° |
| 2026-05-06 14:57 | 50.76704 | 9.56757 | 13211 ft | 263 kts | 180° |
| 2026-05-06 14:58 | 50.74895 | 9.56847 | 12741 ft | 258 kts | 181° |
| 2026-05-06 14:58 | 50.73109 | 9.56935 | 12249 ft | 255 kts | 181° |
| 2026-05-06 14:58 | 50.71344 | 9.57021 | 11755 ft | 252 kts | 181° |
| 2026-05-06 14:58 | 50.69600 | 9.57105 | 11256 ft | 250 kts | 181° |
| 2026-05-06 14:59 | 50.67861 | 9.57190 | 10776 ft | 249 kts | 181° |
| 2026-05-06 14:59 | 50.66139 | 9.57275 | 10304 ft | 247 kts | 180° |
| 2026-05-06 14:59 | 50.64428 | 9.57358 | 9828 ft | 245 kts | 180° |
| 2026-05-06 14:59 | 50.62727 | 9.57442 | 9326 ft | 243 kts | 181° |
| 2026-05-06 15:00 | 50.61040 | 9.57526 | 8796 ft | 242 kts | 180° |
| 2026-05-06 15:00 | 50.59361 | 9.57609 | 8305 ft | 240 kts | 181° |
| 2026-05-06 15:00 | 50.57703 | 9.57693 | 7834 ft | 237 kts | 181° |
| 2026-05-06 15:00 | 50.56059 | 9.57776 | 7386 ft | 235 kts | 181° |
| 2026-05-06 15:01 | 50.54427 | 9.57857 | 6920 ft | 234 kts | 180° |
| 2026-05-06 15:01 | 50.52805 | 9.57937 | 6462 ft | 232 kts | 181° |
| 2026-05-06 15:01 | 50.51197 | 9.58016 | 6079 ft | 230 kts | 181° |
| 2026-05-06 15:01 | 50.49603 | 9.58085 | 5972 ft | 224 kts | 183° |
| 2026-05-06 15:02 | 50.48124 | 9.57923 | 5799 ft | 210 kts | 191° |
| 2026-05-06 15:02 | 50.46727 | 9.57384 | 5448 ft | 205 kts | 201° |
| 2026-05-06 15:02 | 50.45426 | 9.56533 | 5118 ft | 200 kts | 207° |
| 2026-05-06 15:02 | 50.44178 | 9.55602 | 4720 ft | 198 kts | 207° |
| 2026-05-06 15:03 | 50.42939 | 9.54649 | 4333 ft | 199 kts | 208° |
| 2026-05-06 15:03 | 50.41701 | 9.53689 | 4023 ft | 198 kts | 209° |
| 2026-05-06 15:03 | 50.40460 | 9.52728 | 3979 ft | 199 kts | 208° |
| 2026-05-06 15:03 | 50.39215 | 9.51761 | 3977 ft | 200 kts | 208° |
| 2026-05-06 15:04 | 50.37968 | 9.50795 | 3978 ft | 200 kts | 208° |
| 2026-05-06 15:04 | 50.36708 | 9.49818 | 4386 ft | 207 kts | 208° |
| 2026-05-06 15:04 | 50.35435 | 9.48832 | 4789 ft | 200 kts | 208° |
| 2026-05-06 15:04 | 50.34195 | 9.47874 | 4603 ft | 198 kts | 207° |
| 2026-05-06 15:05 | 50.32960 | 9.46920 | 4313 ft | 198 kts | 208° |
| 2026-05-06 15:05 | 50.31721 | 9.45964 | 4058 ft | 199 kts | 208° |
| 2026-05-06 15:05 | 50.30489 | 9.45013 | 3982 ft | 197 kts | 208° |
| 2026-05-06 15:05 | 50.29259 | 9.44063 | 3973 ft | 198 kts | 208° |
| 2026-05-06 15:06 | 50.28014 | 9.43101 | 3971 ft | 201 kts | 208° |
| 2026-05-06 15:06 | 50.26765 | 9.42102 | 3985 ft | 201 kts | 211° |
| 2026-05-06 15:06 | 50.25646 | 9.40820 | 3970 ft | 200 kts | 225° |
| 2026-05-06 15:06 | 50.24783 | 9.39122 | 3987 ft | 201 kts | 239° |
| 2026-05-06 15:07 | 50.24202 | 9.37141 | 3978 ft | 200 kts | 249° |
| 2026-05-06 15:07 | 50.23728 | 9.35100 | 3985 ft | 200 kts | 250° |
| 2026-05-06 15:07 | 50.23271 | 9.33059 | 3976 ft | 198 kts | 250° |
| 2026-05-06 15:07 | 50.22820 | 9.31061 | 3975 ft | 189 kts | 249° |
| 2026-05-06 15:08 | 50.22536 | 9.29808 | 3965 ft | 181 kts | 250° |
| 2026-05-06 15:08 | 50.22098 | 9.27893 | 4007 ft | 201 kts | 250° |
| 2026-05-06 15:08 | 50.21602 | 9.25740 | 3995 ft | 216 kts | 250° |
| 2026-05-06 15:08 | 50.21087 | 9.23507 | 3991 ft | 220 kts | 249° |
| 2026-05-06 15:09 | 50.20571 | 9.21271 | 3978 ft | 219 kts | 250° |
| 2026-05-06 15:09 | 50.20052 | 9.19028 | 3992 ft | 220 kts | 249° |
| 2026-05-06 15:09 | 50.19531 | 9.16792 | 3986 ft | 214 kts | 248° |
| 2026-05-06 15:09 | 50.18647 | 9.15099 | 4008 ft | 199 kts | 215° |
| 2026-05-06 15:10 | 50.17444 | 9.14051 | 3988 ft | 198 kts | 208° |
| 2026-05-06 15:10 | 50.16231 | 9.13021 | 4004 ft | 198 kts | 218° |
| 2026-05-06 15:10 | 50.15227 | 9.11584 | 4190 ft | 192 kts | 229° |
| 2026-05-06 15:10 | 50.14469 | 9.09932 | 4382 ft | 183 kts | 240° |
| 2026-05-06 15:11 | 50.13999 | 9.08123 | 4541 ft | 179 kts | 254° |
| 2026-05-06 15:11 | 50.13752 | 9.06211 | 4538 ft | 182 kts | 253° |
| 2026-05-06 15:11 | 50.13376 | 9.04292 | 4525 ft | 187 kts | 250° |
| 2026-05-06 15:11 | 50.12943 | 9.02358 | 4528 ft | 190 kts | 248° |
| 2026-05-06 15:12 | 50.12467 | 9.00429 | 4530 ft | 192 kts | 246° |
| 2026-05-06 15:12 | 50.12009 | 8.98502 | 4634 ft | 189 kts | 250° |
| 2026-05-06 15:12 | 50.11644 | 8.96530 | 4624 ft | 191 kts | 253° |
| 2026-05-06 15:12 | 50.11348 | 8.94519 | 4596 ft | 188 kts | 256° |
| 2026-05-06 15:13 | 50.11137 | 8.92550 | 4564 ft | 181 kts | 260° |
| 2026-05-06 15:13 | 50.11019 | 8.90649 | 4429 ft | 171 kts | 264° |
| 2026-05-06 15:13 | 50.10973 | 8.88846 | 4243 ft | 162 kts | 264° |
| 2026-05-06 15:13 | 50.10889 | 8.87141 | 4050 ft | 154 kts | 263° |
| 2026-05-06 15:14 | 50.10741 | 8.85560 | 3953 ft | 140 kts | 257° |
| 2026-05-06 15:14 | 50.10572 | 8.83985 | 3962 ft | 161 kts | 260° |
| 2026-05-06 15:14 | 50.10145 | 8.82303 | 3889 ft | 174 kts | 238° |
| 2026-05-06 15:14 | 50.09495 | 8.80701 | 3568 ft | 175 kts | 240° |
| 2026-05-06 15:15 | 50.08935 | 8.79013 | 3194 ft | 175 kts | 246° |
| 2026-05-06 15:15 | 50.08478 | 8.77287 | 2897 ft | 172 kts | 249° |
| 2026-05-06 15:15 | 50.08055 | 8.75573 | 2661 ft | 166 kts | 250° |
| 2026-05-06 15:15 | 50.07664 | 8.73938 | 2448 ft | 156 kts | 251° |
| 2026-05-06 15:16 | 50.07286 | 8.72363 | 2252 ft | 155 kts | 252° |
| 2026-05-06 15:16 | 50.06910 | 8.70795 | 2039 ft | 155 kts | 251° |
| 2026-05-06 15:16 | 50.06534 | 8.69223 | 1835 ft | 154 kts | 251° |
| 2026-05-06 15:16 | 50.06159 | 8.67656 | 1645 ft | 154 kts | 250° |
| 2026-05-06 15:17 | 50.05787 | 8.66102 | 1435 ft | 152 kts | 252° |
| 2026-05-06 15:17 | 50.05420 | 8.64564 | 1214 ft | 150 kts | 251° |
| 2026-05-06 15:17 | 50.05052 | 8.63026 | 1001 ft | 151 kts | 253° |
| 2026-05-06 15:17 | 50.04689 | 8.61495 | 790 ft | 151 kts | 250° |
| 2026-05-06 15:18 | 50.04313 | 8.59976 | 660 ft | 150 kts | 251° |
| 2026-05-06 15:18 | 50.03945 | 8.58440 | 419 ft | 150 kts | 252° |
| 2026-05-06 15:18 | 50.03598 | 8.56972 | 357 ft | 135 kts | 252° |
| 2026-05-06 15:18 | 50.03375 | 8.56018 | 354 ft | 44 kts | 250° |
| 2026-05-06 15:19 | 50.03315 | 8.55761 | 352 ft | 23 kts | 250° |
| 2026-05-06 15:19 | 50.03311 | 8.55554 | 349 ft | 18 kts | 277° |
| 2026-05-06 15:19 | 50.03329 | 8.55361 | 353 ft | 18 kts | 279° |
| 2026-05-06 15:19 | 50.03334 | 8.55317 | 352 ft | 0 kts | 279° |
| 2026-05-06 15:20 | 50.03334 | 8.55315 | 352 ft | 3 kts | 279° |
| 2026-05-06 15:21 | 50.03366 | 8.55185 | 355 ft | 20 kts | 319° |
| 2026-05-06 15:21 | 50.03436 | 8.55227 | 350 ft | 11 kts | 67° |
| 2026-05-06 15:21 | 50.03478 | 8.55394 | 356 ft | 22 kts | 71° |
| 2026-05-06 15:21 | 50.03543 | 8.55673 | 357 ft | 32 kts | 69° |
| 2026-05-06 15:22 | 50.03632 | 8.56037 | 349 ft | 39 kts | 70° |
| 2026-05-06 15:22 | 50.03726 | 8.56444 | 354 ft | 39 kts | 70° |
| 2026-05-06 15:22 | 50.03809 | 8.56790 | 355 ft | 33 kts | 69° |
| 2026-05-06 15:22 | 50.03891 | 8.57130 | 354 ft | 34 kts | 69° |
| 2026-05-06 15:23 | 50.03974 | 8.57474 | 354 ft | 34 kts | 69° |
| 2026-05-06 15:23 | 50.04054 | 8.57819 | 356 ft | 35 kts | 70° |
| 2026-05-06 15:23 | 50.04141 | 8.58177 | 357 ft | 35 kts | 69° |
| 2026-05-06 15:23 | 50.04227 | 8.58538 | 354 ft | 36 kts | 69° |
| 2026-05-06 15:24 | 50.04316 | 8.58902 | 355 ft | 37 kts | 70° |
| 2026-05-06 15:24 | 50.04407 | 8.59281 | 352 ft | 29 kts | 69° |
| 2026-05-06 15:24 | 50.04417 | 8.59322 | 352 ft | 0 kts | 69° |
| 2026-05-06 15:24 | 50.04457 | 8.59449 | 356 ft | 25 kts | 43° |
| 2026-05-06 15:25 | 50.04642 | 8.59461 | 357 ft | 33 kts | 352° |
| 2026-05-06 15:25 | 50.04789 | 8.59394 | 353 ft | 0 kts | 340° |
| 2026-05-06 15:26 | 50.04797 | 8.59389 | 351 ft | 9 kts | 339° |
| 2026-05-06 15:26 | 50.04841 | 8.59240 | 354 ft | 19 kts | 248° |
| 2026-05-06 15:26 | 50.04816 | 8.59121 | 353 ft | 1 kts | 271° |
| 2026-05-06 15:27 | 50.04828 | 8.59115 | 351 ft | 3 kts | 354° |
| 2026-05-06 15:27 | 50.04856 | 8.59125 | 349 ft | 4 kts | 12° |
| 2026-05-06 15:27 | 50.04889 | 8.59117 | 357 ft | 8 kts | 341° |
| 2026-05-06 15:27 | 50.04894 | 8.59114 | 357 ft | 0 kts | 340° |